sensor_id;sensor_type;location;lat;lon;timestamp;P1;durP1;ratioP1;P2;durP2;ratioP2
73879;SDS011;62211;42.986;23.256;2022-10-04T00:00:07;2.70;;;2.50;;
73879;SDS011;62211;42.986;23.256;2022-10-04T00:02:34;3.03;;;2.72;;
73879;SDS011;62211;42.986;23.256;2022-10-04T00:05:01;3.55;;;2.80;;
73879;SDS011;62211;42.986;23.256;2022-10-04T00:07:37;4.32;;;2.63;;
73879;SDS011;62211;42.986;23.256;2022-10-04T00:10:19;2.92;;;2.45;;
73879;SDS011;62211;42.986;23.256;2022-10-04T00:13:00;4.30;;;3.05;;
73879;SDS011;62211;42.986;23.256;2022-10-04T00:15:30;3.60;;;3.15;;
73879;SDS011;62211;42.986;23.256;2022-10-04T00:18:17;3.35;;;3.05;;
73879;SDS011;62211;42.986;23.256;2022-10-04T00:25:48;2.75;;;2.55;;
73879;SDS011;62211;42.986;23.256;2022-10-04T00:30:43;4.32;;;2.85;;
73879;SDS011;62211;42.986;23.256;2022-10-04T00:33:09;3.20;;;2.90;;
73879;SDS011;62211;42.986;23.256;2022-10-04T00:38:00;3.55;;;2.70;;
73879;SDS011;62211;42.986;23.256;2022-10-04T00:40:34;2.92;;;2.70;;
73879;SDS011;62211;42.986;23.256;2022-10-04T00:43:04;3.85;;;2.70;;
73879;SDS011;62211;42.986;23.256;2022-10-04T00:50:59;4.93;;;3.30;;
73879;SDS011;62211;42.986;23.256;2022-10-04T00:56:00;3.28;;;2.95;;
73879;SDS011;62211;42.986;23.256;2022-10-04T00:58:35;3.75;;;2.47;;
73879;SDS011;62211;42.986;23.256;2022-10-04T01:01:08;2.83;;;2.63;;
73879;SDS011;62211;42.986;23.256;2022-10-04T01:03:38;2.83;;;2.63;;
73879;SDS011;62211;42.986;23.256;2022-10-04T01:06:05;8.55;;;2.70;;
73879;SDS011;62211;42.986;23.256;2022-10-04T01:08:49;2.40;;;2.20;;
73879;SDS011;62211;42.986;23.256;2022-10-04T01:14:03;2.95;;;2.53;;
73879;SDS011;62211;42.986;23.256;2022-10-04T01:16:33;2.92;;;2.53;;
73879;SDS011;62211;42.986;23.256;2022-10-04T01:24:37;3.42;;;2.78;;
73879;SDS011;62211;42.986;23.256;2022-10-04T01:27:04;2.88;;;2.50;;
73879;SDS011;62211;42.986;23.256;2022-10-04T01:30:21;3.35;;;3.05;;
73879;SDS011;62211;42.986;23.256;2022-10-04T01:32:46;2.75;;;2.55;;
73879;SDS011;62211;42.986;23.256;2022-10-04T01:35:12;4.00;;;3.58;;
73879;SDS011;62211;42.986;23.256;2022-10-04T01:37:38;3.92;;;3.13;;
73879;SDS011;62211;42.986;23.256;2022-10-04T01:40:04;6.45;;;3.35;;
73879;SDS011;62211;42.986;23.256;2022-10-04T01:42:35;3.65;;;3.35;;
73879;SDS011;62211;42.986;23.256;2022-10-04T01:47:35;2.40;;;2.25;;
73879;SDS011;62211;42.986;23.256;2022-10-04T01:50:07;3.28;;;2.75;;
73879;SDS011;62211;42.986;23.256;2022-10-04T01:52:38;4.03;;;3.13;;
73879;SDS011;62211;42.986;23.256;2022-10-04T01:55:08;3.42;;;2.80;;
73879;SDS011;62211;42.986;23.256;2022-10-04T01:57:40;3.40;;;3.10;;
73879;SDS011;62211;42.986;23.256;2022-10-04T02:00:09;3.35;;;3.08;;
73879;SDS011;62211;42.986;23.256;2022-10-04T02:02:40;6.70;;;3.17;;
73879;SDS011;62211;42.986;23.256;2022-10-04T02:05:09;3.90;;;3.50;;
73879;SDS011;62211;42.986;23.256;2022-10-04T02:07:36;3.78;;;3.42;;
73879;SDS011;62211;42.986;23.256;2022-10-04T02:10:04;4.00;;;3.28;;
73879;SDS011;62211;42.986;23.256;2022-10-04T02:12:31;3.42;;;3.10;;
73879;SDS011;62211;42.986;23.256;2022-10-04T02:14:59;4.55;;;3.75;;
73879;SDS011;62211;42.986;23.256;2022-10-04T02:17:30;4.28;;;3.85;;
73879;SDS011;62211;42.986;23.256;2022-10-04T02:19:57;4.90;;;3.92;;
73879;SDS011;62211;42.986;23.256;2022-10-04T02:22:24;8.18;;;5.20;;
73879;SDS011;62211;42.986;23.256;2022-10-04T02:24:51;5.13;;;4.28;;
73879;SDS011;62211;42.986;23.256;2022-10-04T02:27:17;6.30;;;4.00;;
73879;SDS011;62211;42.986;23.256;2022-10-04T02:29:43;5.40;;;3.90;;
73879;SDS011;62211;42.986;23.256;2022-10-04T02:32:08;3.53;;;3.20;;
73879;SDS011;62211;42.986;23.256;2022-10-04T02:34:53;8.05;;;4.28;;
73879;SDS011;62211;42.986;23.256;2022-10-04T02:37:20;4.65;;;3.50;;
73879;SDS011;62211;42.986;23.256;2022-10-04T02:39:49;4.93;;;3.92;;
73879;SDS011;62211;42.986;23.256;2022-10-04T02:44:51;4.07;;;3.40;;
73879;SDS011;62211;42.986;23.256;2022-10-04T02:47:23;3.85;;;3.13;;
73879;SDS011;62211;42.986;23.256;2022-10-04T02:50:27;4.43;;;3.38;;
73879;SDS011;62211;42.986;23.256;2022-10-04T02:52:59;4.50;;;3.10;;
73879;SDS011;62211;42.986;23.256;2022-10-04T02:55:29;4.50;;;3.95;;
73879;SDS011;62211;42.986;23.256;2022-10-04T02:57:55;4.18;;;3.33;;
73879;SDS011;62211;42.986;23.256;2022-10-04T03:00:26;4.40;;;3.95;;
73879;SDS011;62211;42.986;23.256;2022-10-04T03:05:59;5.55;;;3.65;;
73879;SDS011;62211;42.986;23.256;2022-10-04T03:08:30;6.78;;;3.83;;
73879;SDS011;62211;42.986;23.256;2022-10-04T03:10:58;6.03;;;3.88;;
73879;SDS011;62211;42.986;23.256;2022-10-04T03:13:26;7.43;;;3.95;;
73879;SDS011;62211;42.986;23.256;2022-10-04T03:15:52;7.13;;;3.90;;
73879;SDS011;62211;42.986;23.256;2022-10-04T03:18:17;6.15;;;3.63;;
73879;SDS011;62211;42.986;23.256;2022-10-04T03:20:44;4.10;;;3.30;;
73879;SDS011;62211;42.986;23.256;2022-10-04T03:23:10;5.50;;;3.85;;
73879;SDS011;62211;42.986;23.256;2022-10-04T03:25:56;5.78;;;3.85;;
73879;SDS011;62211;42.986;23.256;2022-10-04T03:28:23;5.97;;;3.85;;
73879;SDS011;62211;42.986;23.256;2022-10-04T03:30:49;4.72;;;3.33;;
73879;SDS011;62211;42.986;23.256;2022-10-04T03:33:18;4.75;;;3.72;;
73879;SDS011;62211;42.986;23.256;2022-10-04T03:35:47;3.67;;;3.10;;
73879;SDS011;62211;42.986;23.256;2022-10-04T03:38:14;3.38;;;3.08;;
73879;SDS011;62211;42.986;23.256;2022-10-04T03:40:43;5.50;;;4.03;;
73879;SDS011;62211;42.986;23.256;2022-10-04T03:43:13;3.95;;;3.65;;
73879;SDS011;62211;42.986;23.256;2022-10-04T03:45:39;5.18;;;3.72;;
73879;SDS011;62211;42.986;23.256;2022-10-04T03:48:06;9.20;;;6.43;;
73879;SDS011;62211;42.986;23.256;2022-10-04T03:50:37;7.95;;;5.03;;
73879;SDS011;62211;42.986;23.256;2022-10-04T03:53:11;10.48;;;6.55;;
73879;SDS011;62211;42.986;23.256;2022-10-04T03:55:42;6.20;;;4.50;;
73879;SDS011;62211;42.986;23.256;2022-10-04T03:58:09;8.45;;;4.35;;
73879;SDS011;62211;42.986;23.256;2022-10-04T04:00:37;5.57;;;4.65;;
73879;SDS011;62211;42.986;23.256;2022-10-04T04:03:06;4.97;;;3.97;;
73879;SDS011;62211;42.986;23.256;2022-10-04T04:05:34;4.68;;;4.13;;
73879;SDS011;62211;42.986;23.256;2022-10-04T04:08:05;5.65;;;4.82;;
73879;SDS011;62211;42.986;23.256;2022-10-04T04:10:35;9.80;;;4.70;;
73879;SDS011;62211;42.986;23.256;2022-10-04T04:13:07;7.32;;;4.00;;
73879;SDS011;62211;42.986;23.256;2022-10-04T04:15:35;6.28;;;4.25;;
73879;SDS011;62211;42.986;23.256;2022-10-04T04:18:02;6.88;;;4.38;;
73879;SDS011;62211;42.986;23.256;2022-10-04T04:20:36;9.07;;;6.80;;
73879;SDS011;62211;42.986;23.256;2022-10-04T04:25:43;7.00;;;4.88;;
73879;SDS011;62211;42.986;23.256;2022-10-04T04:28:21;6.50;;;5.00;;
73879;SDS011;62211;42.986;23.256;2022-10-04T04:30:49;6.68;;;4.95;;
73879;SDS011;62211;42.986;23.256;2022-10-04T04:33:20;5.03;;;4.53;;
73879;SDS011;62211;42.986;23.256;2022-10-04T04:36:04;8.10;;;5.32;;
73879;SDS011;62211;42.986;23.256;2022-10-04T04:38:30;16.75;;;8.55;;
73879;SDS011;62211;42.986;23.256;2022-10-04T04:40:56;17.98;;;9.18;;
73879;SDS011;62211;42.986;23.256;2022-10-04T04:43:32;18.10;;;8.43;;
73879;SDS011;62211;42.986;23.256;2022-10-04T04:45:59;19.52;;;9.65;;
73879;SDS011;62211;42.986;23.256;2022-10-04T04:48:24;15.95;;;7.50;;
73879;SDS011;62211;42.986;23.256;2022-10-04T04:50:51;15.63;;;7.68;;
73879;SDS011;62211;42.986;23.256;2022-10-04T04:53:28;14.85;;;8.45;;
73879;SDS011;62211;42.986;23.256;2022-10-04T04:55:58;17.52;;;7.93;;
73879;SDS011;62211;42.986;23.256;2022-10-04T04:58:26;15.77;;;7.68;;
73879;SDS011;62211;42.986;23.256;2022-10-04T05:01:08;11.23;;;7.38;;
73879;SDS011;62211;42.986;23.256;2022-10-04T05:03:37;10.40;;;6.82;;
73879;SDS011;62211;42.986;23.256;2022-10-04T05:06:02;9.50;;;6.15;;
73879;SDS011;62211;42.986;23.256;2022-10-04T05:08:32;7.40;;;5.78;;
73879;SDS011;62211;42.986;23.256;2022-10-04T05:16:36;10.52;;;7.30;;
73879;SDS011;62211;42.986;23.256;2022-10-04T05:19:05;11.93;;;7.90;;
73879;SDS011;62211;42.986;23.256;2022-10-04T05:21:33;13.75;;;8.00;;
73879;SDS011;62211;42.986;23.256;2022-10-04T05:24:10;11.88;;;7.47;;
73879;SDS011;62211;42.986;23.256;2022-10-04T05:26:38;14.48;;;8.43;;
73879;SDS011;62211;42.986;23.256;2022-10-04T05:29:07;13.02;;;7.60;;
73879;SDS011;62211;42.986;23.256;2022-10-04T05:31:43;17.45;;;7.80;;
73879;SDS011;62211;42.986;23.256;2022-10-04T05:34:46;14.80;;;7.88;;
73879;SDS011;62211;42.986;23.256;2022-10-04T05:37:15;13.55;;;6.90;;
73879;SDS011;62211;42.986;23.256;2022-10-04T05:44:50;15.85;;;7.93;;
73879;SDS011;62211;42.986;23.256;2022-10-04T05:47:17;16.55;;;8.90;;
73879;SDS011;62211;42.986;23.256;2022-10-04T05:49:49;12.65;;;10.07;;
73879;SDS011;62211;42.986;23.256;2022-10-04T06:05:47;10.23;;;6.78;;
73879;SDS011;62211;42.986;23.256;2022-10-04T06:24:24;8.85;;;6.72;;
73879;SDS011;62211;42.986;23.256;2022-10-04T06:26:58;10.73;;;6.93;;
73879;SDS011;62211;42.986;23.256;2022-10-04T06:29:29;8.90;;;6.40;;
73879;SDS011;62211;42.986;23.256;2022-10-04T06:35:07;8.95;;;6.22;;
73879;SDS011;62211;42.986;23.256;2022-10-04T06:48:42;21.33;;;11.52;;
73879;SDS011;62211;42.986;23.256;2022-10-04T06:54:45;14.82;;;7.68;;
73879;SDS011;62211;42.986;23.256;2022-10-04T07:05:28;7.07;;;4.40;;
73879;SDS011;62211;42.986;23.256;2022-10-04T07:08:05;9.07;;;4.75;;
73879;SDS011;62211;42.986;23.256;2022-10-04T07:10:55;9.32;;;5.10;;
73879;SDS011;62211;42.986;23.256;2022-10-04T07:15:53;4.10;;;3.70;;
73879;SDS011;62211;42.986;23.256;2022-10-04T07:18:31;7.07;;;4.05;;
73879;SDS011;62211;42.986;23.256;2022-10-04T07:21:09;3.45;;;3.15;;
73879;SDS011;62211;42.986;23.256;2022-10-04T07:23:46;3.65;;;3.35;;
73879;SDS011;62211;42.986;23.256;2022-10-04T07:26:15;6.72;;;3.67;;
73879;SDS011;62211;42.986;23.256;2022-10-04T07:28:46;2.88;;;2.67;;
73879;SDS011;62211;42.986;23.256;2022-10-04T07:31:31;3.17;;;2.92;;
73879;SDS011;62211;42.986;23.256;2022-10-04T07:34:19;4.75;;;2.92;;
73879;SDS011;62211;42.986;23.256;2022-10-04T07:36:55;2.60;;;2.50;;
73879;SDS011;62211;42.986;23.256;2022-10-04T07:41:57;3.80;;;2.85;;
73879;SDS011;62211;42.986;23.256;2022-10-04T07:44:36;7.55;;;3.20;;
73879;SDS011;62211;42.986;23.256;2022-10-04T07:47:08;3.50;;;3.20;;
73879;SDS011;62211;42.986;23.256;2022-10-04T07:49:46;3.28;;;3.08;;
73879;SDS011;62211;42.986;23.256;2022-10-04T07:55:26;3.58;;;3.28;;
73879;SDS011;62211;42.986;23.256;2022-10-04T08:05:27;2.90;;;2.70;;
73879;SDS011;62211;42.986;23.256;2022-10-04T08:13:00;3.17;;;2.85;;
73879;SDS011;62211;42.986;23.256;2022-10-04T08:15:34;3.53;;;3.22;;
73879;SDS011;62211;42.986;23.256;2022-10-04T08:20:57;3.00;;;2.63;;
73879;SDS011;62211;42.986;23.256;2022-10-04T08:23:42;3.45;;;3.15;;
73879;SDS011;62211;42.986;23.256;2022-10-04T09:08:08;2.53;;;2.33;;
73879;SDS011;62211;42.986;23.256;2022-10-04T09:19:30;3.10;;;2.90;;
73879;SDS011;62211;42.986;23.256;2022-10-04T09:22:10;4.35;;;2.60;;
73879;SDS011;62211;42.986;23.256;2022-10-04T09:27:32;2.63;;;2.42;;
73879;SDS011;62211;42.986;23.256;2022-10-04T09:30:20;3.13;;;2.83;;
73879;SDS011;62211;42.986;23.256;2022-10-04T09:32:57;4.22;;;2.95;;
73879;SDS011;62211;42.986;23.256;2022-10-04T10:16:47;2.83;;;2.63;;
73879;SDS011;62211;42.986;23.256;2022-10-04T10:25:13;2.50;;;2.30;;
73879;SDS011;62211;42.986;23.256;2022-10-04T10:33:52;3.45;;;3.10;;
73879;SDS011;62211;42.986;23.256;2022-10-04T10:41:59;3.15;;;2.90;;
73879;SDS011;62211;42.986;23.256;2022-10-04T10:50:43;2.47;;;2.38;;
73879;SDS011;62211;42.986;23.256;2022-10-04T11:04:11;3.50;;;3.20;;
73879;SDS011;62211;42.986;23.256;2022-10-04T11:12:37;4.22;;;3.45;;
73879;SDS011;62211;42.986;23.256;2022-10-04T11:23:40;4.00;;;3.35;;
73879;SDS011;62211;42.986;23.256;2022-10-04T11:28:56;3.40;;;3.20;;
73879;SDS011;62211;42.986;23.256;2022-10-04T11:41:46;3.33;;;3.08;;
73879;SDS011;62211;42.986;23.256;2022-10-04T11:50:16;3.60;;;3.30;;
73879;SDS011;62211;42.986;23.256;2022-10-04T11:58:29;3.72;;;3.42;;
73879;SDS011;62211;42.986;23.256;2022-10-04T12:03:47;5.70;;;3.38;;
73879;SDS011;62211;42.986;23.256;2022-10-04T12:06:43;3.08;;;2.78;;
73879;SDS011;62211;42.986;23.256;2022-10-04T12:31:10;4.13;;;3.00;;
73879;SDS011;62211;42.986;23.256;2022-10-04T12:33:47;5.53;;;3.70;;
73879;SDS011;62211;42.986;23.256;2022-10-04T12:41:52;4.18;;;3.78;;
73879;SDS011;62211;42.986;23.256;2022-10-04T12:47:01;3.92;;;3.60;;
73879;SDS011;62211;42.986;23.256;2022-10-04T12:52:43;4.57;;;3.60;;
73879;SDS011;62211;42.986;23.256;2022-10-04T12:55:44;4.60;;;4.18;;
73879;SDS011;62211;42.986;23.256;2022-10-04T13:00:46;4.18;;;3.60;;
73879;SDS011;62211;42.986;23.256;2022-10-04T13:18:53;4.50;;;4.10;;
73879;SDS011;62211;42.986;23.256;2022-10-04T13:24:13;4.80;;;3.78;;
73879;SDS011;62211;42.986;23.256;2022-10-04T13:27:02;3.70;;;3.40;;
73879;SDS011;62211;42.986;23.256;2022-10-04T13:32:02;5.10;;;4.68;;
73879;SDS011;62211;42.986;23.256;2022-10-04T13:37:06;3.80;;;3.50;;
73879;SDS011;62211;42.986;23.256;2022-10-04T13:42:38;4.43;;;3.70;;
73879;SDS011;62211;42.986;23.256;2022-10-04T13:59:59;4.55;;;4.07;;
73879;SDS011;62211;42.986;23.256;2022-10-04T14:41:44;4.55;;;3.97;;
73879;SDS011;62211;42.986;23.256;2022-10-04T14:44:27;4.00;;;3.47;;
73879;SDS011;62211;42.986;23.256;2022-10-04T15:03:28;5.00;;;3.50;;
73879;SDS011;62211;42.986;23.256;2022-10-04T15:08:36;12.20;;;5.97;;
73879;SDS011;62211;42.986;23.256;2022-10-04T15:11:13;12.38;;;6.97;;
73879;SDS011;62211;42.986;23.256;2022-10-04T15:19:00;8.40;;;6.28;;
73879;SDS011;62211;42.986;23.256;2022-10-04T15:21:33;8.75;;;6.43;;
73879;SDS011;62211;42.986;23.256;2022-10-04T15:29:40;8.70;;;6.95;;
73879;SDS011;62211;42.986;23.256;2022-10-04T15:35:13;39.90;;;21.70;;
73879;SDS011;62211;42.986;23.256;2022-10-04T15:37:42;36.97;;;21.00;;
73879;SDS011;62211;42.986;23.256;2022-10-04T15:48:29;23.67;;;14.82;;
73879;SDS011;62211;42.986;23.256;2022-10-04T15:51:06;15.10;;;11.02;;
73879;SDS011;62211;42.986;23.256;2022-10-04T15:56:39;23.48;;;12.18;;
73879;SDS011;62211;42.986;23.256;2022-10-04T16:04:58;41.33;;;25.45;;
73879;SDS011;62211;42.986;23.256;2022-10-04T16:10:50;36.30;;;21.77;;
73879;SDS011;62211;42.986;23.256;2022-10-04T16:19:02;31.05;;;17.00;;
73879;SDS011;62211;42.986;23.256;2022-10-04T16:24:53;14.18;;;8.95;;
73879;SDS011;62211;42.986;23.256;2022-10-04T16:33:19;14.30;;;9.38;;
73879;SDS011;62211;42.986;23.256;2022-10-04T16:36:00;12.32;;;9.60;;
73879;SDS011;62211;42.986;23.256;2022-10-04T16:38:31;12.88;;;10.02;;
73879;SDS011;62211;42.986;23.256;2022-10-04T16:43:28;13.40;;;9.10;;
73879;SDS011;62211;42.986;23.256;2022-10-04T16:48:46;12.80;;;10.85;;
73879;SDS011;62211;42.986;23.256;2022-10-04T16:57:09;72.25;;;54.30;;
73879;SDS011;62211;42.986;23.256;2022-10-04T17:13:24;28.30;;;20.35;;
73879;SDS011;62211;42.986;23.256;2022-10-04T17:21:43;29.67;;;19.70;;
73879;SDS011;62211;42.986;23.256;2022-10-04T17:38:08;28.33;;;16.95;;
73879;SDS011;62211;42.986;23.256;2022-10-04T17:46:28;35.53;;;21.40;;
73879;SDS011;62211;42.986;23.256;2022-10-04T17:49:01;27.30;;;18.42;;
73879;SDS011;62211;42.986;23.256;2022-10-04T17:51:54;24.05;;;14.55;;
73879;SDS011;62211;42.986;23.256;2022-10-04T17:54:57;16.90;;;11.65;;
73879;SDS011;62211;42.986;23.256;2022-10-04T18:00:16;20.73;;;12.77;;
73879;SDS011;62211;42.986;23.256;2022-10-04T18:02:48;17.35;;;11.85;;
73879;SDS011;62211;42.986;23.256;2022-10-04T18:08:17;16.92;;;9.85;;
73879;SDS011;62211;42.986;23.256;2022-10-04T18:10:49;13.68;;;8.70;;
73879;SDS011;62211;42.986;23.256;2022-10-04T18:13:18;14.15;;;9.90;;
73879;SDS011;62211;42.986;23.256;2022-10-04T18:15:50;18.48;;;10.38;;
73879;SDS011;62211;42.986;23.256;2022-10-04T18:18:19;19.42;;;13.02;;
73879;SDS011;62211;42.986;23.256;2022-10-04T18:23:22;17.40;;;10.68;;
73879;SDS011;62211;42.986;23.256;2022-10-04T18:25:49;13.55;;;9.60;;
73879;SDS011;62211;42.986;23.256;2022-10-04T18:28:20;15.27;;;9.73;;
73879;SDS011;62211;42.986;23.256;2022-10-04T18:33:16;10.63;;;7.15;;
73879;SDS011;62211;42.986;23.256;2022-10-04T18:38:29;9.80;;;7.38;;
73879;SDS011;62211;42.986;23.256;2022-10-04T18:41:02;9.32;;;6.38;;
73879;SDS011;62211;42.986;23.256;2022-10-04T18:43:41;15.40;;;8.88;;
73879;SDS011;62211;42.986;23.256;2022-10-04T18:46:15;15.32;;;10.90;;
73879;SDS011;62211;42.986;23.256;2022-10-04T18:48:53;15.43;;;9.75;;
73879;SDS011;62211;42.986;23.256;2022-10-04T18:51:44;15.77;;;9.98;;
73879;SDS011;62211;42.986;23.256;2022-10-04T18:57:08;15.05;;;9.07;;
73879;SDS011;62211;42.986;23.256;2022-10-04T19:02:47;12.10;;;8.55;;
73879;SDS011;62211;42.986;23.256;2022-10-04T19:11:08;12.60;;;8.85;;
73879;SDS011;62211;42.986;23.256;2022-10-04T19:19:16;15.95;;;11.57;;
73879;SDS011;62211;42.986;23.256;2022-10-04T19:21:52;12.85;;;8.88;;
73879;SDS011;62211;42.986;23.256;2022-10-04T19:27:01;10.52;;;8.60;;
73879;SDS011;62211;42.986;23.256;2022-10-04T19:29:34;11.90;;;8.55;;
73879;SDS011;62211;42.986;23.256;2022-10-04T19:32:20;12.85;;;7.55;;
73879;SDS011;62211;42.986;23.256;2022-10-04T19:35:04;6.82;;;5.35;;
73879;SDS011;62211;42.986;23.256;2022-10-04T19:40:43;9.50;;;5.80;;
73879;SDS011;62211;42.986;23.256;2022-10-04T19:43:37;16.70;;;11.07;;
73879;SDS011;62211;42.986;23.256;2022-10-04T19:49:17;18.92;;;12.82;;
73879;SDS011;62211;42.986;23.256;2022-10-04T19:51:50;16.50;;;10.35;;
73879;SDS011;62211;42.986;23.256;2022-10-04T19:54:26;17.55;;;10.00;;
73879;SDS011;62211;42.986;23.256;2022-10-04T19:56:56;15.85;;;10.63;;
73879;SDS011;62211;42.986;23.256;2022-10-04T20:02:11;13.00;;;9.13;;
73879;SDS011;62211;42.986;23.256;2022-10-04T20:04:37;15.57;;;9.55;;
73879;SDS011;62211;42.986;23.256;2022-10-04T20:13:02;14.80;;;8.77;;
73879;SDS011;62211;42.986;23.256;2022-10-04T20:24:14;8.13;;;6.45;;
73879;SDS011;62211;42.986;23.256;2022-10-04T20:32:07;6.93;;;5.97;;
73879;SDS011;62211;42.986;23.256;2022-10-04T20:34:54;8.80;;;5.95;;
73879;SDS011;62211;42.986;23.256;2022-10-04T20:37:20;9.63;;;6.15;;
73879;SDS011;62211;42.986;23.256;2022-10-04T20:45:00;7.90;;;6.07;;
73879;SDS011;62211;42.986;23.256;2022-10-04T20:53:05;15.60;;;11.70;;
73879;SDS011;62211;42.986;23.256;2022-10-04T20:55:37;16.23;;;10.38;;
73879;SDS011;62211;42.986;23.256;2022-10-04T20:58:20;12.77;;;8.55;;
73879;SDS011;62211;42.986;23.256;2022-10-04T21:00:56;12.07;;;8.30;;
73879;SDS011;62211;42.986;23.256;2022-10-04T21:03:23;11.70;;;8.30;;
73879;SDS011;62211;42.986;23.256;2022-10-04T21:08:44;11.05;;;8.05;;
73879;SDS011;62211;42.986;23.256;2022-10-04T21:11:11;10.38;;;7.80;;
73879;SDS011;62211;42.986;23.256;2022-10-04T21:16:45;11.65;;;7.85;;
73879;SDS011;62211;42.986;23.256;2022-10-04T21:21:56;15.35;;;10.30;;
73879;SDS011;62211;42.986;23.256;2022-10-04T21:30:14;22.88;;;13.15;;
73879;SDS011;62211;42.986;23.256;2022-10-04T21:32:40;15.98;;;9.75;;
73879;SDS011;62211;42.986;23.256;2022-10-04T21:35:07;16.08;;;10.73;;
73879;SDS011;62211;42.986;23.256;2022-10-04T21:37:33;16.17;;;10.43;;
73879;SDS011;62211;42.986;23.256;2022-10-04T21:39:58;17.08;;;11.75;;
73879;SDS011;62211;42.986;23.256;2022-10-04T21:42:24;15.43;;;10.60;;
73879;SDS011;62211;42.986;23.256;2022-10-04T21:44:50;15.45;;;11.05;;
73879;SDS011;62211;42.986;23.256;2022-10-04T21:47:15;11.88;;;8.50;;
73879;SDS011;62211;42.986;23.256;2022-10-04T21:49:40;9.70;;;8.07;;
73879;SDS011;62211;42.986;23.256;2022-10-04T21:52:06;10.57;;;7.63;;
73879;SDS011;62211;42.986;23.256;2022-10-04T21:54:32;11.90;;;8.40;;
73879;SDS011;62211;42.986;23.256;2022-10-04T21:56:57;9.55;;;7.07;;
73879;SDS011;62211;42.986;23.256;2022-10-04T21:59:23;8.70;;;6.03;;
73879;SDS011;62211;42.986;23.256;2022-10-04T22:01:48;8.35;;;6.32;;
73879;SDS011;62211;42.986;23.256;2022-10-04T22:04:14;7.63;;;6.10;;
73879;SDS011;62211;42.986;23.256;2022-10-04T22:06:39;8.40;;;5.47;;
73879;SDS011;62211;42.986;23.256;2022-10-04T22:09:05;8.32;;;6.03;;
73879;SDS011;62211;42.986;23.256;2022-10-04T22:11:31;9.35;;;6.60;;
73879;SDS011;62211;42.986;23.256;2022-10-04T22:13:56;7.72;;;6.38;;
73879;SDS011;62211;42.986;23.256;2022-10-04T22:16:22;7.65;;;5.60;;
73879;SDS011;62211;42.986;23.256;2022-10-04T22:18:47;10.90;;;6.72;;
73879;SDS011;62211;42.986;23.256;2022-10-04T22:21:13;7.95;;;6.10;;
73879;SDS011;62211;42.986;23.256;2022-10-04T22:23:39;10.52;;;7.15;;
73879;SDS011;62211;42.986;23.256;2022-10-04T22:26:10;9.98;;;7.05;;
73879;SDS011;62211;42.986;23.256;2022-10-04T22:28:37;11.63;;;7.80;;
73879;SDS011;62211;42.986;23.256;2022-10-04T22:31:10;8.90;;;7.30;;
73879;SDS011;62211;42.986;23.256;2022-10-04T22:33:37;11.52;;;7.18;;
73879;SDS011;62211;42.986;23.256;2022-10-04T22:38:38;8.13;;;6.43;;
73879;SDS011;62211;42.986;23.256;2022-10-04T22:41:08;8.20;;;6.60;;
73879;SDS011;62211;42.986;23.256;2022-10-04T22:43:35;9.85;;;7.45;;
73879;SDS011;62211;42.986;23.256;2022-10-04T22:46:01;10.30;;;6.70;;
73879;SDS011;62211;42.986;23.256;2022-10-04T22:48:26;10.25;;;7.05;;
73879;SDS011;62211;42.986;23.256;2022-10-04T22:50:53;10.50;;;6.35;;
73879;SDS011;62211;42.986;23.256;2022-10-04T22:53:19;8.80;;;7.13;;
73879;SDS011;62211;42.986;23.256;2022-10-04T22:55:49;11.63;;;7.80;;
73879;SDS011;62211;42.986;23.256;2022-10-04T22:58:15;9.60;;;6.65;;
73879;SDS011;62211;42.986;23.256;2022-10-04T23:00:41;12.10;;;7.95;;
73879;SDS011;62211;42.986;23.256;2022-10-04T23:05:58;10.82;;;7.10;;
73879;SDS011;62211;42.986;23.256;2022-10-04T23:08:25;14.13;;;7.22;;
73879;SDS011;62211;42.986;23.256;2022-10-04T23:10:57;12.75;;;8.20;;
73879;SDS011;62211;42.986;23.256;2022-10-04T23:13:24;13.20;;;9.18;;
73879;SDS011;62211;42.986;23.256;2022-10-04T23:15:49;14.27;;;9.25;;
73879;SDS011;62211;42.986;23.256;2022-10-04T23:18:16;11.00;;;7.50;;
73879;SDS011;62211;42.986;23.256;2022-10-04T23:20:42;10.15;;;6.88;;
73879;SDS011;62211;42.986;23.256;2022-10-04T23:23:12;10.02;;;6.70;;
73879;SDS011;62211;42.986;23.256;2022-10-04T23:25:45;8.88;;;6.13;;
73879;SDS011;62211;42.986;23.256;2022-10-04T23:28:12;8.20;;;6.78;;
73879;SDS011;62211;42.986;23.256;2022-10-04T23:30:38;10.77;;;6.53;;
73879;SDS011;62211;42.986;23.256;2022-10-04T23:33:05;8.15;;;6.03;;
73879;SDS011;62211;42.986;23.256;2022-10-04T23:35:35;9.48;;;6.82;;
73879;SDS011;62211;42.986;23.256;2022-10-04T23:38:00;9.32;;;5.90;;
73879;SDS011;62211;42.986;23.256;2022-10-04T23:40:31;7.22;;;5.63;;
73879;SDS011;62211;42.986;23.256;2022-10-04T23:42:56;8.48;;;6.93;;
73879;SDS011;62211;42.986;23.256;2022-10-04T23:45:22;7.63;;;6.65;;
73879;SDS011;62211;42.986;23.256;2022-10-04T23:47:50;7.90;;;6.22;;
73879;SDS011;62211;42.986;23.256;2022-10-04T23:50:51;8.00;;;5.55;;
73879;SDS011;62211;42.986;23.256;2022-10-04T23:53:14;5.50;;;4.97;;
73879;SDS011;62211;42.986;23.256;2022-10-04T23:55:45;7.35;;;5.30;;
73879;SDS011;62211;42.986;23.256;2022-10-04T23:58:12;6.35;;;5.15;;
